sensor_id;sensor_type;location;lat;lon;timestamp;P1;durP1;ratioP1;P2;durP2;ratioP2
15114;SDS011;7658;51.456;7.622;2023-03-01T00:01:24;14.40;;;12.53;;
15114;SDS011;7658;51.456;7.622;2023-03-01T00:03:52;14.93;;;12.87;;
15114;SDS011;7658;51.456;7.622;2023-03-01T00:06:19;15.40;;;13.30;;
15114;SDS011;7658;51.456;7.622;2023-03-01T00:08:46;13.47;;;12.07;;
15114;SDS011;7658;51.456;7.622;2023-03-01T00:11:13;13.20;;;11.93;;
15114;SDS011;7658;51.456;7.622;2023-03-01T00:13:52;13.80;;;12.17;;
15114;SDS011;7658;51.456;7.622;2023-03-01T00:16:22;14.77;;;11.97;;
15114;SDS011;7658;51.456;7.622;2023-03-01T00:18:47;14.67;;;12.77;;
15114;SDS011;7658;51.456;7.622;2023-03-01T00:21:13;14.73;;;12.83;;
15114;SDS011;7658;51.456;7.622;2023-03-01T00:23:39;13.80;;;12.40;;
15114;SDS011;7658;51.456;7.622;2023-03-01T00:26:06;14.60;;;12.53;;
15114;SDS011;7658;51.456;7.622;2023-03-01T00:28:34;14.07;;;12.50;;
15114;SDS011;7658;51.456;7.622;2023-03-01T00:33:38;16.27;;;13.03;;
15114;SDS011;7658;51.456;7.622;2023-03-01T00:36:04;16.60;;;14.57;;
15114;SDS011;7658;51.456;7.622;2023-03-01T00:38:34;16.97;;;14.30;;
15114;SDS011;7658;51.456;7.622;2023-03-01T00:41:05;16.37;;;14.40;;
15114;SDS011;7658;51.456;7.622;2023-03-01T00:43:32;18.67;;;14.77;;
15114;SDS011;7658;51.456;7.622;2023-03-01T00:46:04;16.50;;;14.73;;
15114;SDS011;7658;51.456;7.622;2023-03-01T00:48:33;18.33;;;15.27;;
15114;SDS011;7658;51.456;7.622;2023-03-01T00:53:35;19.33;;;14.93;;
15114;SDS011;7658;51.456;7.622;2023-03-01T00:56:02;17.57;;;14.17;;
15114;SDS011;7658;51.456;7.622;2023-03-01T00:58:29;19.37;;;14.57;;
15114;SDS011;7658;51.456;7.622;2023-03-01T01:00:54;18.07;;;14.60;;
15114;SDS011;7658;51.456;7.622;2023-03-01T01:03:21;20.00;;;14.27;;
15114;SDS011;7658;51.456;7.622;2023-03-01T01:05:48;16.33;;;13.83;;
15114;SDS011;7658;51.456;7.622;2023-03-01T01:08:14;18.17;;;15.47;;
15114;SDS011;7658;51.456;7.622;2023-03-01T01:10:39;20.67;;;15.83;;
15114;SDS011;7658;51.456;7.622;2023-03-01T01:13:05;15.80;;;14.10;;
15114;SDS011;7658;51.456;7.622;2023-03-01T01:15:34;19.97;;;14.70;;
15114;SDS011;7658;51.456;7.622;2023-03-01T01:18:00;17.70;;;14.73;;
15114;SDS011;7658;51.456;7.622;2023-03-01T01:20:26;14.80;;;13.30;;
15114;SDS011;7658;51.456;7.622;2023-03-01T01:22:51;18.50;;;14.30;;
15114;SDS011;7658;51.456;7.622;2023-03-01T01:25:17;18.10;;;15.47;;
15114;SDS011;7658;51.456;7.622;2023-03-01T01:27:43;15.87;;;13.83;;
15114;SDS011;7658;51.456;7.622;2023-03-01T01:30:09;17.53;;;15.73;;
15114;SDS011;7658;51.456;7.622;2023-03-01T01:32:36;16.23;;;12.90;;
15114;SDS011;7658;51.456;7.622;2023-03-01T01:35:01;15.93;;;13.87;;
15114;SDS011;7658;51.456;7.622;2023-03-01T01:37:27;18.17;;;14.40;;
15114;SDS011;7658;51.456;7.622;2023-03-01T01:39:59;18.23;;;14.53;;
15114;SDS011;7658;51.456;7.622;2023-03-01T01:42:29;16.93;;;14.20;;
15114;SDS011;7658;51.456;7.622;2023-03-01T01:47:48;17.37;;;12.83;;
15114;SDS011;7658;51.456;7.622;2023-03-01T01:50:16;16.23;;;13.53;;
15114;SDS011;7658;51.456;7.622;2023-03-01T01:52:43;14.77;;;13.23;;
15114;SDS011;7658;51.456;7.622;2023-03-01T01:55:12;15.30;;;13.70;;
15114;SDS011;7658;51.456;7.622;2023-03-01T01:57:44;15.30;;;13.70;;
15114;SDS011;7658;51.456;7.622;2023-03-01T02:00:14;17.80;;;14.63;;
15114;SDS011;7658;51.456;7.622;2023-03-01T02:02:41;15.27;;;13.77;;
15114;SDS011;7658;51.456;7.622;2023-03-01T02:05:11;16.47;;;13.07;;
15114;SDS011;7658;51.456;7.622;2023-03-01T02:07:44;15.47;;;13.83;;
15114;SDS011;7658;51.456;7.622;2023-03-01T02:10:11;14.90;;;13.30;;
15114;SDS011;7658;51.456;7.622;2023-03-01T02:12:37;15.33;;;13.13;;
15114;SDS011;7658;51.456;7.622;2023-03-01T02:15:04;17.33;;;13.57;;
15114;SDS011;7658;51.456;7.622;2023-03-01T02:17:30;14.27;;;12.80;;
15114;SDS011;7658;51.456;7.622;2023-03-01T02:22:40;15.00;;;13.50;;
15114;SDS011;7658;51.456;7.622;2023-03-01T02:27:56;15.60;;;14.00;;
15114;SDS011;7658;51.456;7.622;2023-03-01T02:30:35;14.17;;;12.60;;
15114;SDS011;7658;51.456;7.622;2023-03-01T02:33:02;15.53;;;13.17;;
15114;SDS011;7658;51.456;7.622;2023-03-01T02:35:33;14.57;;;13.13;;
15114;SDS011;7658;51.456;7.622;2023-03-01T02:38:05;13.63;;;12.33;;
15114;SDS011;7658;51.456;7.622;2023-03-01T02:40:33;14.37;;;12.70;;
15114;SDS011;7658;51.456;7.622;2023-03-01T02:43:00;15.50;;;13.83;;
15114;SDS011;7658;51.456;7.622;2023-03-01T02:45:29;15.27;;;13.77;;
15114;SDS011;7658;51.456;7.622;2023-03-01T02:47:55;15.90;;;14.20;;
15114;SDS011;7658;51.456;7.622;2023-03-01T02:50:34;14.90;;;13.27;;
15114;SDS011;7658;51.456;7.622;2023-03-01T02:53:53;14.90;;;13.50;;
15114;SDS011;7658;51.456;7.622;2023-03-01T02:56:32;16.03;;;13.70;;
15114;SDS011;7658;51.456;7.622;2023-03-01T02:58:59;19.10;;;14.47;;
15114;SDS011;7658;51.456;7.622;2023-03-01T03:01:26;14.87;;;13.37;;
15114;SDS011;7658;51.456;7.622;2023-03-01T03:04:02;15.30;;;13.73;;
15114;SDS011;7658;51.456;7.622;2023-03-01T03:06:29;17.57;;;14.00;;
15114;SDS011;7658;51.456;7.622;2023-03-01T03:08:55;17.50;;;14.33;;
15114;SDS011;7658;51.456;7.622;2023-03-01T03:11:21;17.87;;;14.83;;
15114;SDS011;7658;51.456;7.622;2023-03-01T03:13:46;16.20;;;14.60;;
15114;SDS011;7658;51.456;7.622;2023-03-01T03:16:13;17.07;;;13.93;;
15114;SDS011;7658;51.456;7.622;2023-03-01T03:18:39;18.13;;;14.20;;
15114;SDS011;7658;51.456;7.622;2023-03-01T03:21:09;16.23;;;14.60;;
15114;SDS011;7658;51.456;7.622;2023-03-01T03:23:36;16.87;;;14.27;;
15114;SDS011;7658;51.456;7.622;2023-03-01T03:26:02;16.40;;;14.23;;
15114;SDS011;7658;51.456;7.622;2023-03-01T03:28:33;15.63;;;14.03;;
15114;SDS011;7658;51.456;7.622;2023-03-01T03:31:00;15.10;;;13.60;;
15114;SDS011;7658;51.456;7.622;2023-03-01T03:33:29;16.93;;;15.13;;
15114;SDS011;7658;51.456;7.622;2023-03-01T03:35:55;14.93;;;13.40;;
15114;SDS011;7658;51.456;7.622;2023-03-01T03:38:21;17.93;;;14.13;;
15114;SDS011;7658;51.456;7.622;2023-03-01T03:40:48;14.83;;;13.37;;
15114;SDS011;7658;51.456;7.622;2023-03-01T03:43:17;15.53;;;13.93;;
15114;SDS011;7658;51.456;7.622;2023-03-01T03:45:45;14.87;;;13.47;;
15114;SDS011;7658;51.456;7.622;2023-03-01T03:48:12;15.03;;;13.63;;
15114;SDS011;7658;51.456;7.622;2023-03-01T03:50:39;14.47;;;13.07;;
15114;SDS011;7658;51.456;7.622;2023-03-01T03:53:06;18.07;;;14.47;;
15114;SDS011;7658;51.456;7.622;2023-03-01T03:55:34;15.47;;;13.87;;
15114;SDS011;7658;51.456;7.622;2023-03-01T03:58:04;15.57;;;14.10;;
15114;SDS011;7658;51.456;7.622;2023-03-01T04:00:36;19.43;;;14.50;;
15114;SDS011;7658;51.456;7.622;2023-03-01T04:03:04;16.53;;;13.77;;
15114;SDS011;7658;51.456;7.622;2023-03-01T04:05:29;14.90;;;13.53;;
15114;SDS011;7658;51.456;7.622;2023-03-01T04:07:55;20.27;;;14.87;;
15114;SDS011;7658;51.456;7.622;2023-03-01T04:10:29;18.33;;;14.00;;
15114;SDS011;7658;51.456;7.622;2023-03-01T04:12:56;16.07;;;14.37;;
15114;SDS011;7658;51.456;7.622;2023-03-01T04:15:22;17.43;;;14.13;;
15114;SDS011;7658;51.456;7.622;2023-03-01T04:17:50;16.10;;;14.40;;
15114;SDS011;7658;51.456;7.622;2023-03-01T04:20:19;15.37;;;13.90;;
15114;SDS011;7658;51.456;7.622;2023-03-01T04:22:49;16.63;;;14.83;;
15114;SDS011;7658;51.456;7.622;2023-03-01T04:25:22;17.63;;;15.37;;
15114;SDS011;7658;51.456;7.622;2023-03-01T04:27:49;18.57;;;14.30;;
15114;SDS011;7658;51.456;7.622;2023-03-01T04:30:14;18.07;;;16.07;;
15114;SDS011;7658;51.456;7.622;2023-03-01T04:32:40;21.70;;;15.83;;
15114;SDS011;7658;51.456;7.622;2023-03-01T04:35:06;16.67;;;15.00;;
15114;SDS011;7658;51.456;7.622;2023-03-01T04:37:32;18.53;;;15.40;;
15114;SDS011;7658;51.456;7.622;2023-03-01T04:39:59;22.10;;;14.40;;
15114;SDS011;7658;51.456;7.622;2023-03-01T04:42:26;16.53;;;14.60;;
15114;SDS011;7658;51.456;7.622;2023-03-01T04:44:51;17.03;;;14.83;;
15114;SDS011;7658;51.456;7.622;2023-03-01T04:47:17;15.00;;;13.43;;
15114;SDS011;7658;51.456;7.622;2023-03-01T04:49:43;15.50;;;13.90;;
15114;SDS011;7658;51.456;7.622;2023-03-01T04:52:09;17.83;;;15.33;;
15114;SDS011;7658;51.456;7.622;2023-03-01T04:54:35;18.33;;;15.87;;
15114;SDS011;7658;51.456;7.622;2023-03-01T04:57:01;19.83;;;14.77;;
15114;SDS011;7658;51.456;7.622;2023-03-01T04:59:27;16.70;;;14.53;;
15114;SDS011;7658;51.456;7.622;2023-03-01T05:01:54;16.07;;;14.50;;
15114;SDS011;7658;51.456;7.622;2023-03-01T05:04:24;16.77;;;14.43;;
15114;SDS011;7658;51.456;7.622;2023-03-01T05:06:50;21.33;;;16.73;;
15114;SDS011;7658;51.456;7.622;2023-03-01T05:09:16;15.13;;;13.60;;
15114;SDS011;7658;51.456;7.622;2023-03-01T05:11:42;15.70;;;14.10;;
15114;SDS011;7658;51.456;7.622;2023-03-01T05:14:08;15.90;;;14.47;;
15114;SDS011;7658;51.456;7.622;2023-03-01T05:16:35;17.97;;;15.27;;
15114;SDS011;7658;51.456;7.622;2023-03-01T05:19:01;15.67;;;14.00;;
15114;SDS011;7658;51.456;7.622;2023-03-01T05:21:36;16.83;;;14.80;;
15114;SDS011;7658;51.456;7.622;2023-03-01T05:24:23;16.53;;;14.57;;
15114;SDS011;7658;51.456;7.622;2023-03-01T05:26:49;17.27;;;15.10;;
15114;SDS011;7658;51.456;7.622;2023-03-01T05:29:17;16.23;;;13.87;;
15114;SDS011;7658;51.456;7.622;2023-03-01T05:31:50;18.67;;;15.07;;
15114;SDS011;7658;51.456;7.622;2023-03-01T05:34:18;17.70;;;15.73;;
15114;SDS011;7658;51.456;7.622;2023-03-01T05:36:47;16.13;;;14.53;;
15114;SDS011;7658;51.456;7.622;2023-03-01T05:39:13;18.07;;;15.33;;
15114;SDS011;7658;51.456;7.622;2023-03-01T05:41:39;18.23;;;15.80;;
15114;SDS011;7658;51.456;7.622;2023-03-01T05:44:06;18.53;;;15.90;;
15114;SDS011;7658;51.456;7.622;2023-03-01T05:46:32;18.00;;;16.03;;
15114;SDS011;7658;51.456;7.622;2023-03-01T05:48:57;16.63;;;14.83;;
15114;SDS011;7658;51.456;7.622;2023-03-01T05:51:23;16.00;;;14.40;;
15114;SDS011;7658;51.456;7.622;2023-03-01T05:53:49;17.60;;;15.80;;
15114;SDS011;7658;51.456;7.622;2023-03-01T05:56:15;16.63;;;15.07;;
15114;SDS011;7658;51.456;7.622;2023-03-01T05:58:40;17.37;;;15.47;;
15114;SDS011;7658;51.456;7.622;2023-03-01T06:01:10;18.00;;;16.20;;
15114;SDS011;7658;51.456;7.622;2023-03-01T06:03:37;19.90;;;15.83;;
15114;SDS011;7658;51.456;7.622;2023-03-01T06:06:03;19.53;;;15.70;;
15114;SDS011;7658;51.456;7.622;2023-03-01T06:08:29;23.27;;;16.90;;
15114;SDS011;7658;51.456;7.622;2023-03-01T06:10:54;27.23;;;16.77;;
15114;SDS011;7658;51.456;7.622;2023-03-01T06:13:20;18.23;;;16.33;;
15114;SDS011;7658;51.456;7.622;2023-03-01T06:15:48;20.03;;;16.47;;
15114;SDS011;7658;51.456;7.622;2023-03-01T06:18:14;19.03;;;16.57;;
15114;SDS011;7658;51.456;7.622;2023-03-01T06:20:39;17.57;;;15.63;;
15114;SDS011;7658;51.456;7.622;2023-03-01T06:23:05;16.67;;;14.97;;
15114;SDS011;7658;51.456;7.622;2023-03-01T06:25:31;17.67;;;15.77;;
15114;SDS011;7658;51.456;7.622;2023-03-01T06:27:57;19.17;;;17.20;;
15114;SDS011;7658;51.456;7.622;2023-03-01T06:30:23;18.60;;;16.00;;
15114;SDS011;7658;51.456;7.622;2023-03-01T06:32:50;18.23;;;16.33;;
15114;SDS011;7658;51.456;7.622;2023-03-01T06:35:17;18.43;;;16.23;;
15114;SDS011;7658;51.456;7.622;2023-03-01T06:37:44;15.63;;;14.17;;
15114;SDS011;7658;51.456;7.622;2023-03-01T06:40:11;18.33;;;16.40;;
15114;SDS011;7658;51.456;7.622;2023-03-01T06:42:39;18.27;;;15.47;;
15114;SDS011;7658;51.456;7.622;2023-03-01T06:45:06;19.30;;;16.67;;
15114;SDS011;7658;51.456;7.622;2023-03-01T06:47:33;18.90;;;16.87;;
15114;SDS011;7658;51.456;7.622;2023-03-01T06:49:59;21.80;;;16.17;;
15114;SDS011;7658;51.456;7.622;2023-03-01T06:52:25;17.57;;;15.83;;
15114;SDS011;7658;51.456;7.622;2023-03-01T06:54:51;19.53;;;16.17;;
15114;SDS011;7658;51.456;7.622;2023-03-01T06:57:17;21.27;;;16.97;;
15114;SDS011;7658;51.456;7.622;2023-03-01T06:59:43;17.93;;;16.03;;
15114;SDS011;7658;51.456;7.622;2023-03-01T07:02:12;24.20;;;16.27;;
15114;SDS011;7658;51.456;7.622;2023-03-01T07:04:39;19.13;;;16.40;;
15114;SDS011;7658;51.456;7.622;2023-03-01T07:07:04;24.07;;;16.60;;
15114;SDS011;7658;51.456;7.622;2023-03-01T07:09:30;21.07;;;18.23;;
15114;SDS011;7658;51.456;7.622;2023-03-01T07:11:57;18.33;;;16.23;;
15114;SDS011;7658;51.456;7.622;2023-03-01T07:14:23;23.43;;;17.23;;
15114;SDS011;7658;51.456;7.622;2023-03-01T07:16:50;19.50;;;17.37;;
15114;SDS011;7658;51.456;7.622;2023-03-01T07:19:20;24.77;;;17.87;;
15114;SDS011;7658;51.456;7.622;2023-03-01T07:21:46;23.77;;;17.77;;
15114;SDS011;7658;51.456;7.622;2023-03-01T07:24:12;23.57;;;18.33;;
15114;SDS011;7658;51.456;7.622;2023-03-01T07:26:38;26.67;;;19.07;;
15114;SDS011;7658;51.456;7.622;2023-03-01T07:29:05;26.03;;;18.83;;
15114;SDS011;7658;51.456;7.622;2023-03-01T07:31:31;20.73;;;18.53;;
15114;SDS011;7658;51.456;7.622;2023-03-01T07:33:57;22.23;;;18.07;;
15114;SDS011;7658;51.456;7.622;2023-03-01T07:36:23;26.30;;;18.77;;
15114;SDS011;7658;51.456;7.622;2023-03-01T07:38:49;22.10;;;18.07;;
15114;SDS011;7658;51.456;7.622;2023-03-01T07:41:15;22.00;;;19.53;;
15114;SDS011;7658;51.456;7.622;2023-03-01T07:43:41;27.00;;;20.17;;
15114;SDS011;7658;51.456;7.622;2023-03-01T07:46:07;23.90;;;20.37;;
15114;SDS011;7658;51.456;7.622;2023-03-01T07:48:33;27.40;;;20.03;;
15114;SDS011;7658;51.456;7.622;2023-03-01T07:50:59;25.43;;;19.50;;
15114;SDS011;7658;51.456;7.622;2023-03-01T07:53:26;24.47;;;20.57;;
15114;SDS011;7658;51.456;7.622;2023-03-01T07:56:09;26.47;;;20.00;;
15114;SDS011;7658;51.456;7.622;2023-03-01T07:58:37;24.97;;;19.20;;
15114;SDS011;7658;51.456;7.622;2023-03-01T08:01:09;23.93;;;19.37;;
15114;SDS011;7658;51.456;7.622;2023-03-01T08:03:37;25.00;;;19.50;;
15114;SDS011;7658;51.456;7.622;2023-03-01T08:06:09;24.53;;;18.97;;
15114;SDS011;7658;51.456;7.622;2023-03-01T08:08:36;22.70;;;18.00;;
15114;SDS011;7658;51.456;7.622;2023-03-01T08:11:02;26.03;;;18.07;;
15114;SDS011;7658;51.456;7.622;2023-03-01T08:13:30;21.50;;;17.47;;
15114;SDS011;7658;51.456;7.622;2023-03-01T08:16:03;22.03;;;18.10;;
15114;SDS011;7658;51.456;7.622;2023-03-01T08:18:31;23.63;;;19.30;;
15114;SDS011;7658;51.456;7.622;2023-03-01T08:21:01;20.60;;;18.40;;
15114;SDS011;7658;51.456;7.622;2023-03-01T08:23:31;23.00;;;19.40;;
15114;SDS011;7658;51.456;7.622;2023-03-01T08:26:08;23.97;;;18.43;;
15114;SDS011;7658;51.456;7.622;2023-03-01T08:28:37;21.10;;;18.13;;
15114;SDS011;7658;51.456;7.622;2023-03-01T08:31:03;24.17;;;18.17;;
15114;SDS011;7658;51.456;7.622;2023-03-01T08:33:38;21.60;;;18.57;;
15114;SDS011;7658;51.456;7.622;2023-03-01T08:36:06;25.93;;;17.47;;
15114;SDS011;7658;51.456;7.622;2023-03-01T08:38:33;21.77;;;17.97;;
15114;SDS011;7658;51.456;7.622;2023-03-01T08:41:03;21.63;;;17.73;;
15114;SDS011;7658;51.456;7.622;2023-03-01T08:43:29;20.97;;;18.37;;
15114;SDS011;7658;51.456;7.622;2023-03-01T08:45:55;19.63;;;17.17;;
15114;SDS011;7658;51.456;7.622;2023-03-01T08:48:21;21.60;;;18.83;;
15114;SDS011;7658;51.456;7.622;2023-03-01T08:50:46;26.27;;;18.63;;
15114;SDS011;7658;51.456;7.622;2023-03-01T08:53:12;19.33;;;17.33;;
15114;SDS011;7658;51.456;7.622;2023-03-01T08:55:38;20.50;;;17.57;;
15114;SDS011;7658;51.456;7.622;2023-03-01T08:58:03;22.13;;;17.60;;
15114;SDS011;7658;51.456;7.622;2023-03-01T09:00:30;22.07;;;17.90;;
15114;SDS011;7658;51.456;7.622;2023-03-01T09:02:59;21.17;;;17.80;;
15114;SDS011;7658;51.456;7.622;2023-03-01T09:05:25;19.40;;;17.37;;
15114;SDS011;7658;51.456;7.622;2023-03-01T09:07:51;21.57;;;16.90;;
15114;SDS011;7658;51.456;7.622;2023-03-01T09:10:17;24.30;;;15.90;;
15114;SDS011;7658;51.456;7.622;2023-03-01T09:12:43;18.07;;;15.90;;
15114;SDS011;7658;51.456;7.622;2023-03-01T09:15:09;19.83;;;15.97;;
15114;SDS011;7658;51.456;7.622;2023-03-01T09:17:35;18.67;;;16.63;;
15114;SDS011;7658;51.456;7.622;2023-03-01T09:20:01;23.00;;;16.23;;
15114;SDS011;7658;51.456;7.622;2023-03-01T09:22:26;22.20;;;15.20;;
15114;SDS011;7658;51.456;7.622;2023-03-01T09:24:52;19.97;;;14.73;;
15114;SDS011;7658;51.456;7.622;2023-03-01T09:27:19;16.67;;;14.97;;
15114;SDS011;7658;51.456;7.622;2023-03-01T09:29:45;16.63;;;14.07;;
15114;SDS011;7658;51.456;7.622;2023-03-01T09:32:10;18.97;;;12.43;;
15114;SDS011;7658;51.456;7.622;2023-03-01T09:34:36;13.97;;;11.93;;
15114;SDS011;7658;51.456;7.622;2023-03-01T09:37:22;14.27;;;12.53;;
15114;SDS011;7658;51.456;7.622;2023-03-01T09:39:47;16.53;;;12.80;;
15114;SDS011;7658;51.456;7.622;2023-03-01T09:42:13;13.90;;;12.47;;
15114;SDS011;7658;51.456;7.622;2023-03-01T09:47:18;14.50;;;12.10;;
15114;SDS011;7658;51.456;7.622;2023-03-01T09:50:06;13.37;;;11.80;;
15114;SDS011;7658;51.456;7.622;2023-03-01T09:52:42;13.70;;;12.30;;
15114;SDS011;7658;51.456;7.622;2023-03-01T09:55:10;19.17;;;12.47;;
15114;SDS011;7658;51.456;7.622;2023-03-01T09:57:46;14.90;;;12.43;;
15114;SDS011;7658;51.456;7.622;2023-03-01T10:00:37;17.23;;;11.53;;
15114;SDS011;7658;51.456;7.622;2023-03-01T10:10:56;14.93;;;12.43;;
15114;SDS011;7658;51.456;7.622;2023-03-01T10:13:45;14.23;;;12.73;;
15114;SDS011;7658;51.456;7.622;2023-03-01T10:19:03;14.77;;;11.13;;
15114;SDS011;7658;51.456;7.622;2023-03-01T10:21:31;13.27;;;11.97;;
15114;SDS011;7658;51.456;7.622;2023-03-01T10:24:10;12.93;;;11.63;;
15114;SDS011;7658;51.456;7.622;2023-03-01T10:29:09;14.97;;;12.07;;
15114;SDS011;7658;51.456;7.622;2023-03-01T10:31:37;15.00;;;12.33;;
15114;SDS011;7658;51.456;7.622;2023-03-01T10:34:09;15.23;;;12.17;;
15114;SDS011;7658;51.456;7.622;2023-03-01T10:36:48;12.87;;;11.57;;
15114;SDS011;7658;51.456;7.622;2023-03-01T10:39:18;14.10;;;12.43;;
15114;SDS011;7658;51.456;7.622;2023-03-01T10:47:20;14.03;;;11.50;;
15114;SDS011;7658;51.456;7.622;2023-03-01T10:52:21;12.97;;;11.50;;
15114;SDS011;7658;51.456;7.622;2023-03-01T10:55:38;15.53;;;12.13;;
15114;SDS011;7658;51.456;7.622;2023-03-01T10:57:38;15.10;;;11.97;;
15114;SDS011;7658;51.456;7.622;2023-03-01T11:02:48;13.97;;;11.43;;
15114;SDS011;7658;51.456;7.622;2023-03-01T11:05:23;12.90;;;11.53;;
15114;SDS011;7658;51.456;7.622;2023-03-01T11:07:54;13.13;;;11.73;;
15114;SDS011;7658;51.456;7.622;2023-03-01T11:15:33;16.13;;;11.13;;
15114;SDS011;7658;51.456;7.622;2023-03-01T11:17:59;12.37;;;10.83;;
15114;SDS011;7658;51.456;7.622;2023-03-01T11:20:27;14.73;;;11.30;;
15114;SDS011;7658;51.456;7.622;2023-03-01T11:23:10;12.20;;;11.00;;
15114;SDS011;7658;51.456;7.622;2023-03-01T11:25:40;12.90;;;10.90;;
15114;SDS011;7658;51.456;7.622;2023-03-01T11:28:11;14.63;;;12.27;;
15114;SDS011;7658;51.456;7.622;2023-03-01T11:39:47;12.57;;;11.27;;
15114;SDS011;7658;51.456;7.622;2023-03-01T11:42:19;13.23;;;11.67;;
15114;SDS011;7658;51.456;7.622;2023-03-01T11:44:51;13.80;;;11.03;;
15114;SDS011;7658;51.456;7.622;2023-03-01T11:50:03;14.70;;;10.60;;
15114;SDS011;7658;51.456;7.622;2023-03-01T12:06:46;12.57;;;10.60;;
15114;SDS011;7658;51.456;7.622;2023-03-01T12:28:04;14.20;;;11.03;;
15114;SDS011;7658;51.456;7.622;2023-03-01T12:31:03;12.03;;;10.57;;
15114;SDS011;7658;51.456;7.622;2023-03-01T12:33:49;13.07;;;10.57;;
15114;SDS011;7658;51.456;7.622;2023-03-01T12:36:42;15.80;;;10.77;;
15114;SDS011;7658;51.456;7.622;2023-03-01T12:44:53;13.47;;;10.53;;
15114;SDS011;7658;51.456;7.622;2023-03-01T12:48:09;15.17;;;11.63;;
15114;SDS011;7658;51.456;7.622;2023-03-01T12:50:47;14.03;;;10.40;;
15114;SDS011;7658;51.456;7.622;2023-03-01T12:53:24;12.23;;;10.77;;
15114;SDS011;7658;51.456;7.622;2023-03-01T12:56:29;12.13;;;10.17;;
15114;SDS011;7658;51.456;7.622;2023-03-01T12:59:11;13.67;;;9.87;;
15114;SDS011;7658;51.456;7.622;2023-03-01T13:15:53;10.37;;;9.17;;
15114;SDS011;7658;51.456;7.622;2023-03-01T13:20:48;11.50;;;9.83;;
15114;SDS011;7658;51.456;7.622;2023-03-01T13:33:53;10.80;;;9.17;;
15114;SDS011;7658;51.456;7.622;2023-03-01T13:49:46;11.00;;;9.40;;
15114;SDS011;7658;51.456;7.622;2023-03-01T13:55:27;12.87;;;9.20;;
15114;SDS011;7658;51.456;7.622;2023-03-01T13:58:25;11.87;;;9.37;;
15114;SDS011;7658;51.456;7.622;2023-03-01T14:00:56;12.17;;;9.10;;
15114;SDS011;7658;51.456;7.622;2023-03-01T14:03:26;12.20;;;8.93;;
15114;SDS011;7658;51.456;7.622;2023-03-01T14:08:32;11.43;;;8.67;;
15114;SDS011;7658;51.456;7.622;2023-03-01T14:16:41;12.77;;;9.40;;
15114;SDS011;7658;51.456;7.622;2023-03-01T14:19:27;13.33;;;9.17;;
15114;SDS011;7658;51.456;7.622;2023-03-01T14:21:58;11.30;;;9.67;;
15114;SDS011;7658;51.456;7.622;2023-03-01T14:24:47;13.93;;;9.13;;
15114;SDS011;7658;51.456;7.622;2023-03-01T14:27:37;12.53;;;9.07;;
15114;SDS011;7658;51.456;7.622;2023-03-01T14:30:14;13.57;;;9.00;;
15114;SDS011;7658;51.456;7.622;2023-03-01T14:35:28;15.57;;;9.97;;
15114;SDS011;7658;51.456;7.622;2023-03-01T14:37:55;11.00;;;9.73;;
15114;SDS011;7658;51.456;7.622;2023-03-01T14:42:49;11.00;;;8.53;;
15114;SDS011;7658;51.456;7.622;2023-03-01T14:45:16;12.30;;;9.93;;
15114;SDS011;7658;51.456;7.622;2023-03-01T14:47:43;10.60;;;8.87;;
15114;SDS011;7658;51.456;7.622;2023-03-01T14:52:39;11.60;;;9.30;;
15114;SDS011;7658;51.456;7.622;2023-03-01T14:55:13;11.87;;;9.43;;
15114;SDS011;7658;51.456;7.622;2023-03-01T14:57:49;11.77;;;9.40;;
15114;SDS011;7658;51.456;7.622;2023-03-01T15:00:29;10.93;;;9.10;;
15114;SDS011;7658;51.456;7.622;2023-03-01T15:02:56;9.57;;;8.57;;
15114;SDS011;7658;51.456;7.622;2023-03-01T15:05:29;11.67;;;8.60;;
15114;SDS011;7658;51.456;7.622;2023-03-01T15:07:59;13.83;;;9.17;;
15114;SDS011;7658;51.456;7.622;2023-03-01T15:10:27;11.23;;;8.57;;
15114;SDS011;7658;51.456;7.622;2023-03-01T15:12:55;14.57;;;9.73;;
15114;SDS011;7658;51.456;7.622;2023-03-01T15:17:54;10.80;;;8.83;;
15114;SDS011;7658;51.456;7.622;2023-03-01T15:20:25;10.23;;;9.23;;
15114;SDS011;7658;51.456;7.622;2023-03-01T15:22:54;12.60;;;9.30;;
15114;SDS011;7658;51.456;7.622;2023-03-01T15:25:23;11.17;;;9.40;;
15114;SDS011;7658;51.456;7.622;2023-03-01T15:27:51;13.17;;;9.47;;
15114;SDS011;7658;51.456;7.622;2023-03-01T15:30:36;11.80;;;9.03;;
15114;SDS011;7658;51.456;7.622;2023-03-01T15:35:53;10.83;;;8.27;;
15114;SDS011;7658;51.456;7.622;2023-03-01T15:38:27;14.87;;;8.97;;
15114;SDS011;7658;51.456;7.622;2023-03-01T15:41:22;11.13;;;8.60;;
15114;SDS011;7658;51.456;7.622;2023-03-01T15:43:53;11.03;;;8.83;;
15114;SDS011;7658;51.456;7.622;2023-03-01T15:46:25;10.97;;;8.33;;
15114;SDS011;7658;51.456;7.622;2023-03-01T15:48:53;11.93;;;8.50;;
15114;SDS011;7658;51.456;7.622;2023-03-01T15:51:28;12.40;;;8.53;;
15114;SDS011;7658;51.456;7.622;2023-03-01T15:54:03;9.10;;;7.80;;
15114;SDS011;7658;51.456;7.622;2023-03-01T15:56:36;10.23;;;8.63;;
15114;SDS011;7658;51.456;7.622;2023-03-01T15:59:02;11.00;;;8.40;;
15114;SDS011;7658;51.456;7.622;2023-03-01T16:01:28;9.63;;;8.10;;
15114;SDS011;7658;51.456;7.622;2023-03-01T16:03:54;9.40;;;8.50;;
15114;SDS011;7658;51.456;7.622;2023-03-01T16:06:21;9.87;;;8.07;;
15114;SDS011;7658;51.456;7.622;2023-03-01T16:08:47;10.67;;;7.73;;
15114;SDS011;7658;51.456;7.622;2023-03-01T16:11:14;11.80;;;8.27;;
15114;SDS011;7658;51.456;7.622;2023-03-01T16:13:43;9.30;;;8.40;;
15114;SDS011;7658;51.456;7.622;2023-03-01T16:16:10;9.90;;;8.30;;
15114;SDS011;7658;51.456;7.622;2023-03-01T16:18:45;10.00;;;8.63;;
15114;SDS011;7658;51.456;7.622;2023-03-01T16:21:12;10.63;;;8.43;;
15114;SDS011;7658;51.456;7.622;2023-03-01T16:23:45;9.10;;;7.83;;
15114;SDS011;7658;51.456;7.622;2023-03-01T16:26:11;11.20;;;8.07;;
15114;SDS011;7658;51.456;7.622;2023-03-01T16:28:37;13.07;;;9.00;;
15114;SDS011;7658;51.456;7.622;2023-03-01T16:31:04;9.60;;;8.20;;
15114;SDS011;7658;51.456;7.622;2023-03-01T16:33:30;11.53;;;8.93;;
15114;SDS011;7658;51.456;7.622;2023-03-01T16:35:57;11.73;;;8.77;;
15114;SDS011;7658;51.456;7.622;2023-03-01T16:38:24;10.90;;;8.83;;
15114;SDS011;7658;51.456;7.622;2023-03-01T16:40:51;11.20;;;8.93;;
15114;SDS011;7658;51.456;7.622;2023-03-01T16:43:16;11.00;;;9.00;;
15114;SDS011;7658;51.456;7.622;2023-03-01T16:45:42;10.23;;;8.80;;
15114;SDS011;7658;51.456;7.622;2023-03-01T16:48:10;10.63;;;9.30;;
15114;SDS011;7658;51.456;7.622;2023-03-01T16:50:35;9.50;;;8.33;;
15114;SDS011;7658;51.456;7.622;2023-03-01T16:53:01;12.53;;;8.70;;
15114;SDS011;7658;51.456;7.622;2023-03-01T16:55:27;13.57;;;9.20;;
15114;SDS011;7658;51.456;7.622;2023-03-01T16:57:53;13.40;;;9.80;;
15114;SDS011;7658;51.456;7.622;2023-03-01T17:00:19;12.87;;;9.03;;
15114;SDS011;7658;51.456;7.622;2023-03-01T17:02:45;9.73;;;8.53;;
15114;SDS011;7658;51.456;7.622;2023-03-01T17:05:11;12.40;;;9.93;;
15114;SDS011;7658;51.456;7.622;2023-03-01T17:07:37;12.33;;;9.67;;
15114;SDS011;7658;51.456;7.622;2023-03-01T17:10:03;10.77;;;9.37;;
15114;SDS011;7658;51.456;7.622;2023-03-01T17:12:31;20.53;;;9.23;;
15114;SDS011;7658;51.456;7.622;2023-03-01T17:14:57;13.37;;;9.43;;
15114;SDS011;7658;51.456;7.622;2023-03-01T17:17:23;11.03;;;8.60;;
15114;SDS011;7658;51.456;7.622;2023-03-01T17:19:49;10.97;;;8.43;;
15114;SDS011;7658;51.456;7.622;2023-03-01T17:22:15;9.47;;;8.13;;
15114;SDS011;7658;51.456;7.622;2023-03-01T17:24:42;13.07;;;8.80;;
15114;SDS011;7658;51.456;7.622;2023-03-01T17:27:08;10.43;;;8.37;;
15114;SDS011;7658;51.456;7.622;2023-03-01T17:29:36;11.83;;;8.40;;
15114;SDS011;7658;51.456;7.622;2023-03-01T17:32:03;12.83;;;9.07;;